createdAt,value
2022-08-14T00:02:04.522Z,2.90
2022-08-14T00:04:42.067Z,6.20
2022-08-14T00:07:14.061Z,3.72
2022-08-14T00:09:55.614Z,6.78
2022-08-14T00:12:33.928Z,3.67
2022-08-14T00:15:43.687Z,2.95
2022-08-14T00:18:30.213Z,3.17
2022-08-14T00:21:01.522Z,5.30
2022-08-14T00:23:30.897Z,4.95
2022-08-14T00:26:05.605Z,2.78
2022-08-14T00:28:36.824Z,6.53
2022-08-14T00:31:06.506Z,6.00
2022-08-14T00:33:51.009Z,5.05
2022-08-14T00:36:37.543Z,6.82
2022-08-14T00:39:18.125Z,2.97
2022-08-14T00:41:47.660Z,6.70
2022-08-14T00:44:15.271Z,2.40
2022-08-14T00:46:54.132Z,6.45
2022-08-14T00:49:26.085Z,4.28
2022-08-14T00:51:53.708Z,5.03
2022-08-14T00:54:21.700Z,7.60
2022-08-14T00:56:55.172Z,6.45
2022-08-14T00:59:24.786Z,3.85
2022-08-14T01:01:54.400Z,3.63
2022-08-14T01:04:38.101Z,6.75
2022-08-14T01:07:11.444Z,5.72
2022-08-14T01:09:41.733Z,4.43
2022-08-14T01:12:09.333Z,6.45
2022-08-14T01:14:38.069Z,6.15
2022-08-14T01:17:08.905Z,7.00
2022-08-14T01:19:54.470Z,6.55
2022-08-14T01:22:21.381Z,2.75
2022-08-14T01:24:54.299Z,3.60
2022-08-14T01:27:24.135Z,3.03
2022-08-14T01:30:01.331Z,5.80
2022-08-14T01:32:37.490Z,3.45
2022-08-14T01:35:20.774Z,3.22
2022-08-14T01:37:57.811Z,3.88
2022-08-14T01:40:33.285Z,5.60
2022-08-14T01:43:15.785Z,7.18
2022-08-14T01:45:48.905Z,3.47
2022-08-14T01:48:25.637Z,5.88
2022-08-14T01:50:52.561Z,6.97
2022-08-14T01:53:20.736Z,3.75
2022-08-14T01:55:51.559Z,4.10
2022-08-14T01:58:23.474Z,4.25
2022-08-14T02:00:58.486Z,4.65
2022-08-14T02:03:31.257Z,5.22
2022-08-14T02:06:00.057Z,5.75
2022-08-14T02:08:35.217Z,4.22
2022-08-14T02:11:21.890Z,7.55
2022-08-14T02:13:53.540Z,3.30
2022-08-14T02:16:26.400Z,6.80
2022-08-14T02:18:56.292Z,3.97
2022-08-14T02:21:26.916Z,5.57
2022-08-14T02:23:55.369Z,3.38
2022-08-14T02:26:29.761Z,5.47
2022-08-14T02:29:25.340Z,5.40
2022-08-14T02:32:30.111Z,5.20
2022-08-14T02:35:00.662Z,8.07
2022-08-14T02:37:47.292Z,4.15
2022-08-14T02:40:15.613Z,5.60
2022-08-14T02:42:55.024Z,5.43
2022-08-14T02:45:38.642Z,4.93
2022-08-14T02:49:04.605Z,6.68
2022-08-14T02:51:00.556Z,5.20
2022-08-14T02:53:33.249Z,4.20
2022-08-14T02:56:03.218Z,7.43
2022-08-14T02:58:50.566Z,5.82
2022-08-14T03:01:24.197Z,6.65
2022-08-14T03:03:59.542Z,8.05
2022-08-14T03:06:35.191Z,6.72
2022-08-14T03:09:13.389Z,9.20
2022-08-14T03:11:44.704Z,7.22
2022-08-14T03:14:15.518Z,6.53
2022-08-14T03:16:49.281Z,6.38
2022-08-14T03:19:19.734Z,6.85
2022-08-14T03:21:47.155Z,7.22
2022-08-14T03:24:23.300Z,6.95
2022-08-14T03:26:57.405Z,6.18
2022-08-14T03:29:26.518Z,9.15
2022-08-14T03:31:53.924Z,7.95
2022-08-14T03:34:24.675Z,8.13
2022-08-14T03:37:37.553Z,11.38
2022-08-14T03:40:00.373Z,6.60
2022-08-14T03:42:31.114Z,9.02
2022-08-14T03:45:25.932Z,9.52
2022-08-14T03:47:58.909Z,14.90
2022-08-14T03:53:02.994Z,8.25
2022-08-14T03:55:30.974Z,8.45
2022-08-14T03:58:00.364Z,8.18
2022-08-14T04:00:42.995Z,9.80
2022-08-14T04:03:12.487Z,8.73
2022-08-14T04:05:48.467Z,10.65
2022-08-14T04:08:29.354Z,9.85
2022-08-14T04:11:02.044Z,9.65
2022-08-14T04:13:35.400Z,10.00
2022-08-14T04:16:10.051Z,10.15
2022-08-14T04:18:45.849Z,12.23
2022-08-14T04:23:44.237Z,11.77
2022-08-14T04:26:15.065Z,9.77
2022-08-14T04:29:14.289Z,12.32
2022-08-14T04:33:02.971Z,10.20
2022-08-14T04:34:29.897Z,10.80
2022-08-14T04:37:17.494Z,11.27
2022-08-14T04:40:08.789Z,13.30
2022-08-14T04:42:54.683Z,11.63
2022-08-14T04:45:23.953Z,12.25
2022-08-14T04:48:12.754Z,11.75
2022-08-14T04:50:53.781Z,12.70
2022-08-14T04:53:35.535Z,13.38
2022-08-14T04:56:10.370Z,12.13
2022-08-14T04:58:39.015Z,15.85
2022-08-14T05:01:12.761Z,13.57
2022-08-14T05:03:46.591Z,13.00
2022-08-14T05:06:38.241Z,13.27
2022-08-14T05:09:01.192Z,12.27
2022-08-14T05:11:28.194Z,12.65
2022-08-14T05:14:42.914Z,13.38
2022-08-14T05:16:46.609Z,13.32
2022-08-14T05:19:25.203Z,10.57
2022-08-14T05:22:16.686Z,8.57
2022-08-14T05:24:50.591Z,9.05
2022-08-14T05:27:23.130Z,7.82
2022-08-14T05:29:56.861Z,10.35
2022-08-14T05:32:27.819Z,8.68
2022-08-14T05:34:58.300Z,11.05
2022-08-14T05:37:28.074Z,10.38
2022-08-14T05:39:55.493Z,9.70
2022-08-14T05:42:29.024Z,10.00
2022-08-14T05:44:59.201Z,11.93
2022-08-14T05:47:28.685Z,15.60
2022-08-14T05:50:01.845Z,12.25
2022-08-14T05:52:38.750Z,13.77
2022-08-14T05:55:11.474Z,13.90
2022-08-14T05:57:54.182Z,14.55
2022-08-14T06:00:34.863Z,12.23
2022-08-14T06:03:08.828Z,13.70
2022-08-14T06:05:38.884Z,14.07
2022-08-14T06:08:31.151Z,17.10
2022-08-14T06:11:03.967Z,21.45
2022-08-14T06:13:44.887Z,16.80
2022-08-14T06:16:17.817Z,18.40
2022-08-14T06:18:52.911Z,13.77
2022-08-14T06:21:23.659Z,13.80
2022-08-14T06:23:51.410Z,15.82
2022-08-14T06:26:20.750Z,12.30
2022-08-14T06:28:52.082Z,14.05
2022-08-14T06:31:20.768Z,17.08
2022-08-14T06:35:09.354Z,13.52
2022-08-14T06:36:36.693Z,14.82
2022-08-14T06:39:03.857Z,12.40
2022-08-14T06:41:57.607Z,11.15
2022-08-14T06:44:30.426Z,12.70
2022-08-14T06:47:01.763Z,13.57
2022-08-14T06:49:30.261Z,13.40
2022-08-14T06:51:57.529Z,11.27
2022-08-14T06:54:31.193Z,14.27
2022-08-14T06:56:59.219Z,12.48
2022-08-14T06:59:26.389Z,16.17
2022-08-14T07:02:13.563Z,10.60
2022-08-14T07:05:05.296Z,15.35
2022-08-14T07:07:41.244Z,11.35
2022-08-14T07:10:17.022Z,7.47
2022-08-14T07:13:01.195Z,8.57
2022-08-14T07:15:33.618Z,10.48
2022-08-14T07:18:02.424Z,7.57
2022-08-14T07:20:31.701Z,9.07
2022-08-14T07:23:08.358Z,9.30
2022-08-14T07:25:42.070Z,7.25
2022-08-14T07:28:20.839Z,5.73
2022-08-14T07:30:51.122Z,7.65
2022-08-14T07:33:24.805Z,8.35
2022-08-14T07:35:59.335Z,8.48
2022-08-14T07:38:35.679Z,6.28
2022-08-14T07:41:11.623Z,9.35
2022-08-14T07:43:47.475Z,8.02
2022-08-14T07:46:28.272Z,8.82
2022-08-14T07:48:57.190Z,9.13
2022-08-14T07:51:24.631Z,11.23
2022-08-14T07:53:56.873Z,11.35
2022-08-14T07:56:48.238Z,10.45
2022-08-14T07:59:12.811Z,12.35
2022-08-14T08:01:48.448Z,15.00
2022-08-14T08:04:24.567Z,6.95
2022-08-14T08:06:53.428Z,6.47
2022-08-14T08:09:31.942Z,6.78
2022-08-14T08:12:04.538Z,8.15
2022-08-14T08:14:55.458Z,7.65
2022-08-14T08:17:24.646Z,4.50
2022-08-14T08:19:52.095Z,12.25
2022-08-14T08:22:21.317Z,6.07
2022-08-14T08:24:50.313Z,14.75
2022-08-14T08:27:21.366Z,10.50
2022-08-14T08:29:50.709Z,9.43
2022-08-14T08:32:18.930Z,15.50
2022-08-14T08:34:48.499Z,7.63
2022-08-14T08:37:16.694Z,8.30
2022-08-14T08:40:01.362Z,7.00
2022-08-14T08:42:41.176Z,8.38
2022-08-14T08:45:12.055Z,5.80
2022-08-14T08:47:40.995Z,7.55
2022-08-14T08:50:31.764Z,8.20
2022-08-14T08:53:06.268Z,10.90
2022-08-14T08:55:33.973Z,9.82
2022-08-14T08:58:16.513Z,4.45
2022-08-14T09:00:54.259Z,3.28
2022-08-14T09:03:25.656Z,8.43
2022-08-14T09:07:00.633Z,3.95
2022-08-14T09:08:53.280Z,4.25
2022-08-14T09:11:24.650Z,5.60
2022-08-14T09:13:54.549Z,5.07
2022-08-14T09:16:26.049Z,10.18
2022-08-14T09:18:54.752Z,5.65
2022-08-14T09:21:24.426Z,8.32
2022-08-14T09:24:29.193Z,6.13
2022-08-14T09:26:44.313Z,6.13
2022-08-14T09:29:22.756Z,7.93
2022-08-14T09:31:57.809Z,4.70
2022-08-14T09:34:58.815Z,5.28
2022-08-14T09:37:33.160Z,6.95
2022-08-14T09:40:29.844Z,3.88
2022-08-14T09:43:07.733Z,8.73
2022-08-14T09:45:53.022Z,8.05
2022-08-14T09:48:30.588Z,6.00
2022-08-14T09:54:12.853Z,8.57
2022-08-14T09:56:30.259Z,10.35
2022-08-14T10:01:37.395Z,6.10
2022-08-14T10:04:32.833Z,5.72
2022-08-14T10:07:08.584Z,3.53
2022-08-14T10:09:59.791Z,4.80
2022-08-14T10:12:50.209Z,3.35
2022-08-14T10:15:25.409Z,6.25
2022-08-14T10:18:08.153Z,35.88
2022-08-14T10:20:42.598Z,7.38
2022-08-14T10:23:23.361Z,2.95
2022-08-14T10:25:54.382Z,4.13
2022-08-14T10:28:39.009Z,2.55
2022-08-14T10:33:46.896Z,4.57
2022-08-14T10:39:05.630Z,2.70
2022-08-14T10:41:46.594Z,4.13
2022-08-14T10:44:21.645Z,2.97
2022-08-14T10:47:41.176Z,5.68
2022-08-14T10:49:50.101Z,2.30
2022-08-14T10:52:25.896Z,3.40
2022-08-14T10:54:56.279Z,4.65
2022-08-14T10:57:28.040Z,2.97
2022-08-14T11:00:01.860Z,2.38
2022-08-14T11:02:45.153Z,4.47
2022-08-14T11:05:19.426Z,7.72
2022-08-14T11:07:56.423Z,17.15
2022-08-14T11:10:28.030Z,4.90
2022-08-14T11:12:57.735Z,7.65
2022-08-14T11:15:27.825Z,3.28
2022-08-14T11:17:56.496Z,2.33
2022-08-14T11:20:30.803Z,3.97
2022-08-14T11:23:00.723Z,2.78
2022-08-14T11:25:43.871Z,2.85
2022-08-14T11:28:48.556Z,2.35
2022-08-14T11:31:13.283Z,2.05
2022-08-14T11:33:41.624Z,4.70
2022-08-14T11:36:18.281Z,2.83
2022-08-14T11:38:46.922Z,3.78
2022-08-14T11:41:18.393Z,2.90
2022-08-14T11:43:58.217Z,4.22
2022-08-14T11:46:30.716Z,4.43
2022-08-14T11:49:06.180Z,3.45
2022-08-14T11:51:35.966Z,3.60
2022-08-14T11:54:06.421Z,8.63
2022-08-14T11:56:37.290Z,2.35
2022-08-14T11:59:06.914Z,2.33
2022-08-14T12:01:38.074Z,3.40
2022-08-14T12:04:21.821Z,6.32
2022-08-14T12:07:00.975Z,3.75
2022-08-14T12:09:38.778Z,4.18
2022-08-14T12:12:36.234Z,2.47
2022-08-14T12:15:05.495Z,4.85
2022-08-14T12:17:49.583Z,6.35
2022-08-14T12:20:29.826Z,2.72
2022-08-14T12:23:05.580Z,2.00
2022-08-14T12:25:35.045Z,6.00
2022-08-14T12:28:10.369Z,3.22
2022-08-14T12:30:56.699Z,5.03
2022-08-14T12:33:31.261Z,3.55
2022-08-14T12:36:04.683Z,2.10
2022-08-14T12:38:44.202Z,5.35
2022-08-14T12:41:23.990Z,5.50
2022-08-14T12:44:16.030Z,5.60
2022-08-14T12:46:47.685Z,7.65
2022-08-14T12:49:18.918Z,8.05
2022-08-14T12:51:57.764Z,9.65
2022-08-14T12:54:28.197Z,6.45
2022-08-14T12:57:14.629Z,9.35
2022-08-14T12:59:46.241Z,7.85
2022-08-14T13:02:26.118Z,9.35
2022-08-14T13:04:55.787Z,8.27
2022-08-14T13:07:26.467Z,14.80
2022-08-14T13:09:59.333Z,12.18
2022-08-14T13:12:39.825Z,8.88
2022-08-14T13:15:19.627Z,5.55
2022-08-14T13:17:51.943Z,7.82
2022-08-14T13:20:26.594Z,10.30
2022-08-14T13:22:56.206Z,7.97
2022-08-14T13:25:26.290Z,5.78
2022-08-14T13:27:59.464Z,10.50
2022-08-14T13:30:27.176Z,11.05
2022-08-14T13:32:57.995Z,9.82
2022-08-14T13:35:25.773Z,11.50
2022-08-14T13:37:53.481Z,7.07
2022-08-14T13:40:26.362Z,7.35
2022-08-14T13:42:56.786Z,7.00
2022-08-14T13:45:59.588Z,7.50
2022-08-14T13:48:30.673Z,9.68
2022-08-14T13:51:02.096Z,6.43
2022-08-14T13:53:34.912Z,7.78
2022-08-14T13:58:35.651Z,10.02
2022-08-14T14:01:04.286Z,6.80
2022-08-14T14:03:38.049Z,9.32
2022-08-14T14:06:07.073Z,7.63
2022-08-14T14:08:45.599Z,8.60
2022-08-14T14:11:19.456Z,8.93
2022-08-14T14:13:48.282Z,8.52
2022-08-14T14:16:26.122Z,9.13
2022-08-14T14:19:08.994Z,9.05
2022-08-14T14:21:37.895Z,6.50
2022-08-14T14:24:07.763Z,12.57
2022-08-14T14:26:36.158Z,10.35
2022-08-14T14:29:06.226Z,12.50
2022-08-14T14:31:38.882Z,9.10
2022-08-14T14:34:29.752Z,9.73
2022-08-14T14:37:04.393Z,8.90
2022-08-14T14:39:35.158Z,9.75
2022-08-14T14:42:06.542Z,6.57
2022-08-14T14:44:40.298Z,9.43
2022-08-14T14:47:11.856Z,10.48
2022-08-14T14:49:51.293Z,8.48
2022-08-14T14:52:27.760Z,10.13
2022-08-14T14:54:58.390Z,6.10
2022-08-14T14:57:35.201Z,7.50
2022-08-14T15:00:23.429Z,7.38
2022-08-14T15:02:53.362Z,9.20
2022-08-14T15:05:28.522Z,9.53
2022-08-14T15:07:55.828Z,10.23
2022-08-14T15:10:28.324Z,8.93
2022-08-14T15:13:03.767Z,10.35
2022-08-14T15:15:33.126Z,11.70
2022-08-14T15:18:01.218Z,12.48
2022-08-14T15:20:30.605Z,7.85
2022-08-14T15:23:12.059Z,6.32
2022-08-14T15:25:41.361Z,9.35
2022-08-14T15:28:11.667Z,7.80
2022-08-14T15:30:50.930Z,10.00
2022-08-14T15:34:33.173Z,10.48
2022-08-14T15:36:31.310Z,7.38
2022-08-14T15:38:59.529Z,9.30
2022-08-14T15:41:27.004Z,8.45
2022-08-14T15:44:01.605Z,6.72
2022-08-14T15:46:42.816Z,7.50
2022-08-14T15:49:11.001Z,11.68
2022-08-14T15:51:42.420Z,15.05
2022-08-14T15:54:11.334Z,11.48
2022-08-14T15:56:43.163Z,14.07
2022-08-14T15:59:13.299Z,21.13
2022-08-14T16:01:54.358Z,14.03
2022-08-14T16:04:23.778Z,15.43
2022-08-14T16:06:51.766Z,16.23
2022-08-14T16:09:22.058Z,13.85
2022-08-14T16:11:53.354Z,12.73
2022-08-14T16:14:22.073Z,14.45
2022-08-14T16:17:00.764Z,9.43
2022-08-14T16:19:33.151Z,12.60
2022-08-14T16:22:58.778Z,9.88
2022-08-14T16:25:03.149Z,13.85
2022-08-14T16:27:39.136Z,12.07
2022-08-14T16:30:24.542Z,9.75
2022-08-14T16:32:57.320Z,8.75
2022-08-14T16:35:43.140Z,7.93
2022-08-14T16:38:44.827Z,7.22
2022-08-14T16:41:23.418Z,12.05
2022-08-14T16:44:13.913Z,8.80
2022-08-14T16:46:57.223Z,9.35
2022-08-14T16:50:03.525Z,9.90
2022-08-14T16:52:25.814Z,7.70
2022-08-14T16:55:05.202Z,9.95
2022-08-14T16:57:34.317Z,8.68
2022-08-14T17:00:07.129Z,6.05
2022-08-14T17:02:47.490Z,6.40
2022-08-14T17:05:17.978Z,10.13
2022-08-14T17:08:28.620Z,6.55
2022-08-14T17:10:51.573Z,6.65
2022-08-14T17:13:57.760Z,5.30
2022-08-14T17:16:25.334Z,8.82
2022-08-14T17:19:00.816Z,10.15
2022-08-14T17:21:38.154Z,7.07
2022-08-14T17:24:56.789Z,7.65
2022-08-14T17:27:04.033Z,4.07
2022-08-14T17:29:34.847Z,7.32
2022-08-14T17:32:21.918Z,8.50
2022-08-14T17:34:57.723Z,4.88
2022-08-14T17:37:39.253Z,9.95
2022-08-14T17:40:16.775Z,7.60
2022-08-14T17:42:51.317Z,7.82
2022-08-14T17:45:26.884Z,8.98
2022-08-14T17:47:59.310Z,9.55
2022-08-14T17:51:00.564Z,7.35
2022-08-14T17:53:30.628Z,8.30
2022-08-14T17:56:01.170Z,6.53
2022-08-14T17:58:38.540Z,7.65
2022-08-14T18:01:13.817Z,6.05
2022-08-14T18:03:50.749Z,6.85
2022-08-14T18:06:39.754Z,6.43
2022-08-14T18:09:25.347Z,6.72
2022-08-14T18:11:55.329Z,7.80
2022-08-14T18:14:32.742Z,9.07
2022-08-14T18:17:12.290Z,6.55
2022-08-14T18:19:45.064Z,5.03
2022-08-14T18:22:23.905Z,8.23
2022-08-14T18:25:02.172Z,7.88
2022-08-14T18:27:41.661Z,7.63
2022-08-14T18:30:36.330Z,5.75
2022-08-14T18:33:12.759Z,7.90
2022-08-14T18:35:59.138Z,5.07
2022-08-14T18:38:59.777Z,6.63
2022-08-14T18:41:36.107Z,8.20
2022-08-14T18:44:11.053Z,8.85
2022-08-14T18:47:06.314Z,7.22
2022-08-14T18:49:55.150Z,4.78
2022-08-14T18:52:39.309Z,5.70
2022-08-14T18:55:16.724Z,7.70
2022-08-14T18:57:59.291Z,5.55
2022-08-14T19:00:32.712Z,8.18
2022-08-14T19:03:01.620Z,5.88
2022-08-14T19:05:37.975Z,5.18
2022-08-14T19:08:18.644Z,7.20
2022-08-14T19:10:57.307Z,6.65
2022-08-14T19:13:48.559Z,5.38
2022-08-14T19:16:26.092Z,6.28
2022-08-14T19:19:00.086Z,5.57
2022-08-14T19:21:34.581Z,12.10
2022-08-14T19:24:07.805Z,13.30
2022-08-14T19:27:23.939Z,5.20
2022-08-14T19:30:20.196Z,8.98
2022-08-14T19:32:53.049Z,5.60
2022-08-14T19:35:49.467Z,7.05
2022-08-14T19:38:46.410Z,7.78
2022-08-14T19:41:19.375Z,6.55
2022-08-14T19:43:55.132Z,10.65
2022-08-14T19:46:37.775Z,11.85
2022-08-14T19:49:23.248Z,7.97
2022-08-14T19:52:02.730Z,10.40
2022-08-14T19:54:32.541Z,9.35
2022-08-14T19:57:03.196Z,8.05
2022-08-14T19:59:36.782Z,6.78
2022-08-14T20:02:29.977Z,7.80
2022-08-14T20:04:59.581Z,9.73
2022-08-14T20:08:00.482Z,5.70
2022-08-14T20:11:05.839Z,4.72
2022-08-14T20:13:32.024Z,4.95
2022-08-14T20:16:07.078Z,4.90
2022-08-14T20:18:50.725Z,5.55
2022-08-14T20:21:21.415Z,5.50
2022-08-14T20:23:49.384Z,6.03
2022-08-14T20:26:31.494Z,7.68
2022-08-14T20:29:05.267Z,8.50
2022-08-14T20:31:37.903Z,5.13
2022-08-14T20:34:19.142Z,5.90
2022-08-14T20:37:22.041Z,9.90
2022-08-14T20:39:54.820Z,6.93
2022-08-14T20:42:43.645Z,5.05
2022-08-14T20:45:21.681Z,4.70
2022-08-14T20:47:56.569Z,6.50
2022-08-14T20:50:28.757Z,7.65
2022-08-14T20:53:00.700Z,5.05
2022-08-14T20:55:41.748Z,6.32
2022-08-14T20:58:43.097Z,4.57
2022-08-14T21:01:13.958Z,3.65
2022-08-14T21:03:57.134Z,5.35
2022-08-14T21:06:30.202Z,3.17
2022-08-14T21:09:18.558Z,5.05
2022-08-14T21:12:02.656Z,5.45
2022-08-14T21:14:30.250Z,3.40
2022-08-14T21:16:59.219Z,5.13
2022-08-14T21:19:27.362Z,6.38
2022-08-14T21:21:56.798Z,4.93
2022-08-14T21:24:39.536Z,6.07
2022-08-14T21:27:20.047Z,6.13
2022-08-14T21:29:55.451Z,8.95
2022-08-14T21:32:35.079Z,4.10
2022-08-14T21:35:08.481Z,8.02
2022-08-14T21:37:44.071Z,7.90
2022-08-14T21:43:01.488Z,4.03
2022-08-14T21:45:28.365Z,3.90
2022-08-14T21:47:56.358Z,7.05
2022-08-14T21:50:39.500Z,8.80
2022-08-14T21:53:11.173Z,7.53
2022-08-14T21:55:38.060Z,3.30
2022-08-14T21:58:52.084Z,5.85
2022-08-14T22:00:54.242Z,5.15
2022-08-14T22:03:24.148Z,6.72
2022-08-14T22:05:56.059Z,5.53
2022-08-14T22:08:26.603Z,3.88
2022-08-14T22:10:55.564Z,5.47
2022-08-14T22:13:26.488Z,4.55
2022-08-14T22:15:59.618Z,5.72
2022-08-14T22:20:56.954Z,5.03
2022-08-14T22:23:25.884Z,9.43
2022-08-14T22:25:53.540Z,6.57
2022-08-14T22:28:25.166Z,4.30
2022-08-14T22:30:54.705Z,7.13
2022-08-14T22:33:26.606Z,5.43
2022-08-14T22:35:59.253Z,4.45
2022-08-14T22:38:37.657Z,4.07
2022-08-14T22:41:29.507Z,5.75
2022-08-14T22:43:59.245Z,4.97
2022-08-14T22:46:27.067Z,3.75
2022-08-14T22:48:54.746Z,9.35
2022-08-14T22:51:27.472Z,4.35
2022-08-14T22:53:55.938Z,4.80
2022-08-14T22:56:30.515Z,3.10
2022-08-14T22:59:03.178Z,6.30
2022-08-14T23:01:56.398Z,7.07
2022-08-14T23:04:35.823Z,4.15
2022-08-14T23:07:22.099Z,4.85
2022-08-14T23:10:32.398Z,7.05
2022-08-14T23:15:24.112Z,7.07
2022-08-14T23:17:51.241Z,3.95
2022-08-14T23:20:22.153Z,3.55
2022-08-14T23:22:53.198Z,3.22
2022-08-14T23:25:58.328Z,7.15
2022-08-14T23:28:34.471Z,3.72
2022-08-14T23:31:06.121Z,4.35
2022-08-14T23:33:45.787Z,6.50
2022-08-14T23:36:31.500Z,5.20
2022-08-14T23:39:07.099Z,3.57
2022-08-14T23:41:45.747Z,5.82
2022-08-14T23:44:20.509Z,3.40
2022-08-14T23:46:49.545Z,4.93
2022-08-14T23:49:21.192Z,4.22
2022-08-14T23:51:59.810Z,6.20
2022-08-14T23:54:49.022Z,8.13
2022-08-14T23:57:19.183Z,6.75
2022-08-14T23:59:54.924Z,5.75
